createdAt,value
2023-06-30T00:03:16.057Z,99913.75
2023-06-30T00:08:17.909Z,99907.81
2023-06-30T00:13:19.886Z,99906.13
2023-06-30T00:18:21.662Z,99908.02
2023-06-30T00:23:23.746Z,99900.66
2023-06-30T00:28:25.417Z,99896.98
2023-06-30T00:33:27.099Z,99898.08
2023-06-30T00:38:28.808Z,99893.19
2023-06-30T00:43:30.636Z,99891.80
2023-06-30T00:48:32.828Z,99889.45
2023-06-30T00:53:34.800Z,99888.09
2023-06-30T00:58:36.678Z,99882.80
2023-06-30T01:03:44.732Z,99877.89
2023-06-30T01:08:57.332Z,99867.52
2023-06-30T01:13:59.931Z,99861.59
2023-06-30T01:19:04.476Z,99858.89
2023-06-30T01:24:08.581Z,99858.89
2023-06-30T01:29:11.136Z,99855.50
2023-06-30T01:34:12.863Z,99851.66
2023-06-30T01:39:16.641Z,99847.67
2023-06-30T01:44:18.773Z,99852.09
2023-06-30T01:49:20.846Z,99851.80
2023-06-30T01:54:22.626Z,99847.45
2023-06-30T01:59:24.301Z,99846.80
2023-06-30T02:04:26.179Z,99849.39
2023-06-30T02:09:38.781Z,99846.31
2023-06-30T02:14:48.825Z,99840.69
2023-06-30T02:19:50.545Z,99834.30
2023-06-30T02:24:54.511Z,99830.28
2023-06-30T02:29:57.781Z,99829.92
2023-06-30T02:34:59.903Z,99825.50
2023-06-30T02:40:02.055Z,99822.97
2023-06-30T02:45:06.226Z,99820.42
2023-06-30T02:50:08.672Z,99821.55
2023-06-30T02:55:11.154Z,99821.32
2023-06-30T03:00:13.334Z,99821.06
2023-06-30T03:05:15.544Z,99817.84
2023-06-30T03:10:17.158Z,99817.14
2023-06-30T03:15:18.974Z,99815.80
2023-06-30T03:20:20.750Z,99814.69
2023-06-30T03:25:22.418Z,99816.89
2023-06-30T03:30:24.304Z,99818.18
2023-06-30T03:35:26.082Z,99815.02
2023-06-30T03:40:27.983Z,99812.63
2023-06-30T03:45:29.921Z,99814.82
2023-06-30T03:50:31.797Z,99813.64
2023-06-30T03:55:33.779Z,99807.28
2023-06-30T04:00:35.975Z,99809.15
2023-06-30T04:05:37.844Z,99804.44
2023-06-30T04:10:39.522Z,99808.23
2023-06-30T04:15:41.491Z,99807.56
2023-06-30T04:20:43.373Z,99805.09
2023-06-30T04:25:45.129Z,99806.19
2023-06-30T04:30:47.850Z,99814.58
2023-06-30T04:35:49.999Z,99818.17
2023-06-30T04:40:51.910Z,99816.48
2023-06-30T04:45:53.611Z,99813.98
2023-06-30T04:50:55.361Z,99813.73
2023-06-30T04:55:57.437Z,99811.18
2023-06-30T05:00:59.629Z,99803.31
2023-06-30T05:06:01.738Z,99808.39
2023-06-30T05:11:03.686Z,99810.23
2023-06-30T05:16:06.370Z,99806.30
2023-06-30T05:21:11.004Z,99810.33
2023-06-30T05:26:12.904Z,99811.55
2023-06-30T05:31:14.681Z,99809.84
2023-06-30T05:36:16.649Z,99807.94
2023-06-30T05:41:18.526Z,99808.91
2023-06-30T05:46:20.520Z,99817.48
2023-06-30T05:51:22.278Z,99821.55
2023-06-30T05:56:24.266Z,99819.17
2023-06-30T06:01:26.451Z,99814.10
2023-06-30T06:06:28.649Z,99809.05
2023-06-30T06:11:30.505Z,99799.98
2023-06-30T06:16:32.280Z,99799.82
2023-06-30T06:21:36.005Z,99800.20
2023-06-30T06:26:37.579Z,99797.04
2023-06-30T06:31:39.346Z,99796.24
2023-06-30T06:36:41.020Z,99797.48
2023-06-30T06:41:42.796Z,99804.41
2023-06-30T06:46:44.739Z,99805.10
2023-06-30T06:51:47.168Z,99803.40
2023-06-30T06:56:51.601Z,99806.44
2023-06-30T07:01:53.498Z,99805.59
2023-06-30T07:06:55.356Z,99802.90
2023-06-30T07:11:57.131Z,99795.44
2023-06-30T07:16:58.910Z,99792.79
2023-06-30T07:22:00.713Z,99795.63
2023-06-30T07:27:03.066Z,99793.07
2023-06-30T07:32:05.202Z,99792.77
2023-06-30T07:37:08.664Z,99791.85
2023-06-30T07:42:10.336Z,99792.77
2023-06-30T07:47:12.213Z,99790.38
2023-06-30T07:52:13.992Z,99795.56
2023-06-30T07:57:15.862Z,99790.52
2023-06-30T08:02:18.368Z,99785.40
2023-06-30T08:07:20.143Z,99780.31
2023-06-30T08:12:42.077Z,99778.20
2023-06-30T08:17:53.092Z,99777.55
2023-06-30T08:22:59.249Z,99776.79
2023-06-30T08:28:01.020Z,99767.87
2023-06-30T08:33:03.357Z,99759.57
2023-06-30T08:38:05.498Z,99753.75
2023-06-30T08:43:11.769Z,99750.02
2023-06-30T08:48:13.964Z,99747.30
2023-06-30T08:53:17.986Z,99746.45
2023-06-30T08:58:25.479Z,99748.34
2023-06-30T09:03:28.402Z,99745.44
2023-06-30T09:08:42.156Z,99744.63
2023-06-30T09:13:46.079Z,99741.45
2023-06-30T09:18:49.210Z,99730.06
2023-06-30T09:23:51.780Z,99727.02
2023-06-30T09:28:54.572Z,99724.42
2023-06-30T09:34:14.682Z,99718.95
2023-06-30T09:39:16.773Z,99717.77
2023-06-30T09:44:21.209Z,99713.23
2023-06-30T09:49:24.253Z,99706.19
2023-06-30T09:54:43.710Z,99713.37
2023-06-30T09:59:47.715Z,99719.63
2023-06-30T10:04:49.393Z,99722.81
2023-06-30T10:09:51.682Z,99723.30
2023-06-30T10:14:54.063Z,99717.14
2023-06-30T10:19:55.944Z,99711.29
2023-06-30T10:25:01.414Z,99708.42
2023-06-30T10:30:06.354Z,99711.44
2023-06-30T10:35:09.951Z,99713.63
2023-06-30T10:40:38.071Z,99715.38
2023-06-30T10:46:15.479Z,99713.30
2023-06-30T10:51:17.148Z,99706.67
2023-06-30T10:56:22.157Z,99702.77
2023-06-30T11:01:23.977Z,99697.38
2023-06-30T11:06:26.675Z,99700.02
2023-06-30T11:11:29.004Z,99700.22
2023-06-30T11:16:31.086Z,99696.80
2023-06-30T11:21:33.125Z,99695.23
2023-06-30T11:26:36.736Z,99692.27
2023-06-30T11:31:38.819Z,99691.15
2023-06-30T11:36:40.494Z,99685.31
2023-06-30T11:41:44.109Z,99687.84
2023-06-30T11:46:46.123Z,99677.50
2023-06-30T11:51:48.689Z,99667.35
2023-06-30T11:56:50.970Z,99666.88
2023-06-30T12:01:53.363Z,99672.61
2023-06-30T12:06:56.192Z,99671.13
2023-06-30T12:11:59.229Z,99663.97
2023-06-30T12:17:03.906Z,99658.38
2023-06-30T12:22:07.792Z,99656.34
2023-06-30T12:27:09.711Z,99656.33
2023-06-30T12:32:13.733Z,99647.52
2023-06-30T12:37:18.788Z,99642.05
2023-06-30T12:42:23.544Z,99639.92
2023-06-30T12:47:26.374Z,99635.53
2023-06-30T12:52:28.311Z,99636.46
2023-06-30T12:57:30.264Z,99640.98
2023-06-30T13:02:34.025Z,99640.63
2023-06-30T13:07:35.973Z,99628.86
2023-06-30T13:12:41.269Z,99621.19
2023-06-30T13:17:43.201Z,99619.92
2023-06-30T13:22:56.933Z,99620.80
2023-06-30T13:28:06.849Z,99616.41
2023-06-30T13:33:08.990Z,99612.02
2023-06-30T13:38:12.856Z,99612.01
2023-06-30T13:43:14.648Z,99596.71
2023-06-30T13:48:16.347Z,99591.21
2023-06-30T13:53:18.292Z,99590.99
2023-06-30T13:58:20.976Z,99576.96
2023-06-30T14:03:23.381Z,99568.53
2023-06-30T14:08:25.351Z,99564.83
2023-06-30T14:13:28.831Z,99553.00
2023-06-30T14:18:30.737Z,99549.39
2023-06-30T14:23:32.712Z,99540.52
2023-06-30T14:28:34.492Z,99539.40
2023-06-30T14:33:39.043Z,99534.95
2023-06-30T14:38:41.129Z,99528.06
2023-06-30T14:43:43.116Z,99523.67
2023-06-30T14:48:44.972Z,99521.61
2023-06-30T14:53:46.740Z,99512.25
2023-06-30T14:58:50.768Z,99514.11
2023-06-30T15:03:52.392Z,99501.77
2023-06-30T15:08:54.120Z,99498.34
2023-06-30T15:13:55.910Z,99493.72
2023-06-30T15:18:58.739Z,99490.55
2023-06-30T15:24:01.692Z,99482.57
2023-06-30T15:29:04.215Z,99475.23
2023-06-30T15:34:05.970Z,99471.52
2023-06-30T15:39:08.572Z,99471.71
2023-06-30T15:44:10.432Z,99469.93
2023-06-30T15:49:13.705Z,99472.49
2023-06-30T15:54:15.455Z,99474.52
2023-06-30T15:59:17.293Z,99470.33
2023-06-30T16:04:19.215Z,99470.21
2023-06-30T16:09:21.351Z,99471.63
2023-06-30T16:14:23.026Z,99474.98
2023-06-30T16:19:24.810Z,99478.14
2023-06-30T16:24:26.476Z,99481.73
2023-06-30T16:29:33.047Z,99503.10
2023-06-30T16:34:35.771Z,99522.90
2023-06-30T16:39:37.842Z,99551.57
2023-06-30T16:44:39.831Z,99551.59
2023-06-30T16:49:42.316Z,99537.02
2023-06-30T16:54:44.198Z,99530.34
2023-06-30T16:59:46.068Z,99528.79
2023-06-30T17:04:49.279Z,99519.79
2023-06-30T17:09:51.049Z,99514.59
2023-06-30T17:14:52.941Z,99518.46
2023-06-30T17:19:54.653Z,99516.70
2023-06-30T17:25:04.249Z,99512.55
2023-06-30T17:30:10.347Z,99505.52
2023-06-30T17:35:12.111Z,99498.52
2023-06-30T17:40:14.089Z,99492.31
2023-06-30T17:45:15.859Z,99486.41
2023-06-30T17:50:18.198Z,99489.80
2023-06-30T17:55:20.034Z,99490.74
2023-06-30T18:00:22.102Z,99486.08
2023-06-30T18:05:24.396Z,99494.95
2023-06-30T18:10:26.368Z,99498.48
2023-06-30T18:15:31.635Z,99503.16
2023-06-30T18:20:33.408Z,99505.34
2023-06-30T18:25:35.377Z,99519.80
2023-06-30T18:30:38.321Z,99526.85
2023-06-30T18:35:40.467Z,99529.27
2023-06-30T18:40:42.337Z,99530.77
2023-06-30T18:45:44.282Z,99532.84
2023-06-30T18:50:46.302Z,99528.04
2023-06-30T18:55:51.622Z,99520.54
2023-06-30T19:00:54.602Z,99517.88
2023-06-30T19:06:00.059Z,99524.80
2023-06-30T19:11:08.047Z,99530.14
2023-06-30T19:16:10.064Z,99533.32
2023-06-30T19:21:12.415Z,99530.08
2023-06-30T19:26:15.418Z,99524.63
2023-06-30T19:31:18.394Z,99519.94
2023-06-30T19:36:20.404Z,99526.25
2023-06-30T19:41:24.201Z,99527.08
2023-06-30T19:46:27.493Z,99520.94
2023-06-30T19:51:29.521Z,99515.75
2023-06-30T19:56:31.607Z,99513.52
2023-06-30T20:01:33.710Z,99510.80
2023-06-30T20:06:35.766Z,99500.54
2023-06-30T20:11:37.534Z,99489.82
2023-06-30T20:16:39.457Z,99485.18
2023-06-30T20:21:41.796Z,99484.54
2023-06-30T20:26:43.587Z,99477.48
2023-06-30T20:31:45.432Z,99488.75
2023-06-30T20:36:50.247Z,99491.64
2023-06-30T20:41:52.075Z,99502.91
2023-06-30T20:46:54.009Z,99513.23
2023-06-30T20:51:57.836Z,99517.58
2023-06-30T20:57:01.552Z,99523.13
2023-06-30T21:02:03.776Z,99531.67
2023-06-30T21:07:05.865Z,99510.77
2023-06-30T21:12:07.743Z,99505.27
2023-06-30T21:17:10.578Z,99516.88
2023-06-30T21:22:12.318Z,99529.66
2023-06-30T21:27:14.191Z,99531.66
2023-06-30T21:32:16.273Z,99533.52
2023-06-30T21:37:18.454Z,99539.20
2023-06-30T21:42:20.231Z,99539.58
2023-06-30T21:47:22.007Z,99541.16
2023-06-30T21:52:23.805Z,99543.38
2023-06-30T21:57:25.776Z,99541.83
2023-06-30T22:02:27.885Z,99546.48
2023-06-30T22:07:30.950Z,99542.25
2023-06-30T22:12:33.130Z,99541.98
2023-06-30T22:17:34.756Z,99543.52
2023-06-30T22:22:36.703Z,99535.86
2023-06-30T22:27:38.461Z,99536.59
2023-06-30T22:32:40.282Z,99532.38
2023-06-30T22:37:42.109Z,99527.90
2023-06-30T22:42:44.665Z,99521.23
2023-06-30T22:47:47.194Z,99519.57
2023-06-30T22:52:50.110Z,99522.09
2023-06-30T22:57:52.689Z,99525.52
2023-06-30T23:02:54.588Z,99526.41
2023-06-30T23:07:56.656Z,99527.20
2023-06-30T23:12:59.151Z,99529.09
2023-06-30T23:18:01.337Z,99530.63
2023-06-30T23:23:08.018Z,99530.27
2023-06-30T23:28:10.100Z,99531.48
2023-06-30T23:33:12.304Z,99532.45
2023-06-30T23:38:15.008Z,99534.52
2023-06-30T23:43:23.660Z,99537.10
2023-06-30T23:48:25.902Z,99540.14
2023-06-30T23:53:28.183Z,99535.87
2023-06-30T23:58:30.280Z,99534.20
